Capitol Logistics 1133


EBLG
Liège Airport
Liege, BE
EDDM
Franz Josef Strauss International Airport
Munich, DE

Activity Log

Date Flight Route Aircraft Duration
02/22/2020 CPX1133 LNO7S LNO Z283 SOPOK Y863 ROPUV L607 RUDUS T109 HAREM T104 ANORA ANOR3A B738 1h 09m
11/12/2019 CPX733 LNO7S LNO UN852 PELIX UL607 RIDSU UZ738 NOMBO Y161 RIXED RIXE4A B738 1h 14m
10/30/2019 CPX733 Not Available B738 0h 55m

Route Details

Aircraft Information
Primary: Boeing 737-800BCF
Backup: Not Available
Route Data
Distance: 282nm
Sched. Duration: 1h 05m
Avg. Duration: 0h 93m (-12m)
Times Flown: 3
Recm'd Route: Not Available
Planned Altitude: 33,000ft
Origin Wx: EBLG 272250Z 27008KT 9999 SCT029 01/M00 Q1011 R22/591093 NOSIG
Dest. Wx: EDDM 272250Z 27028G41KT 8000 -SN SCT016 BKN021 02/M01 Q1001 R88/290095 TEMPO 2500 SN BKN012
Notes:

Financial History
Total Freight: 85,536lbs
Average Load: 28,512lbs/flt
Fuel Used: 16,950lbs
Avg. Fuel Used: 5,650lbs/flt
Fuel Expense: $18,815
Avg. Fuel Expense: $6,272
Avg. Fuel Cost: $1.11/lbs
Total Gross Income: $183,216
Pilot Pay: $687
Total Expenses: $19,943
Total Revenue: $143,703
Average Revenue: $61,072.00